createdAt,value
2022-08-19T00:01:42.559Z,100570.25
2022-08-19T00:04:12.521Z,100575.66
2022-08-19T00:06:40.508Z,100568.16
2022-08-19T00:09:10.511Z,100566.22
2022-08-19T00:11:38.467Z,100560.84
2022-08-19T00:14:10.712Z,100558.66
2022-08-19T00:16:42.186Z,100558.00
2022-08-19T00:19:09.032Z,100545.66
2022-08-19T00:21:40.598Z,100542.00
2022-08-19T00:24:09.059Z,100544.19
2022-08-19T00:26:36.746Z,100539.44
2022-08-19T00:29:05.165Z,100544.66
2022-08-19T00:31:32.387Z,100541.81
2022-08-19T00:33:59.217Z,100553.41
2022-08-19T00:36:26.325Z,100557.09
2022-08-19T00:38:53.328Z,100557.84
2022-08-19T00:41:22.425Z,100554.91
2022-08-19T00:44:07.564Z,100549.19
2022-08-19T00:46:37.528Z,100550.47
2022-08-19T00:49:10.642Z,100554.97
2022-08-19T00:51:37.296Z,100547.09
2022-08-19T00:54:04.301Z,100543.97
2022-08-19T00:56:31.925Z,100538.53
2022-08-19T00:58:59.902Z,100530.81
2022-08-19T01:01:27.067Z,100531.69
2022-08-19T01:03:57.043Z,100521.22
2022-08-19T01:06:26.050Z,100515.50
2022-08-19T01:08:52.574Z,100524.06
2022-08-19T01:11:19.017Z,100529.97
2022-08-19T01:13:49.899Z,100530.88
2022-08-19T01:16:20.198Z,100529.00
2022-08-19T01:18:47.138Z,100537.38
2022-08-19T01:21:23.425Z,100535.22
2022-08-19T01:23:49.981Z,100545.06
2022-08-19T01:26:20.084Z,100537.91
2022-08-19T01:28:48.707Z,100547.59
2022-08-19T01:31:27.088Z,100559.44
2022-08-19T01:33:57.395Z,100572.31
2022-08-19T01:36:37.042Z,100581.22
2022-08-19T01:39:08.172Z,100582.34
2022-08-19T01:41:35.478Z,100580.84
2022-08-19T01:44:17.996Z,100579.66
2022-08-19T01:46:46.641Z,100590.91
2022-08-19T01:49:13.261Z,100610.41
2022-08-19T01:51:40.555Z,100607.44
2022-08-19T01:54:12.539Z,100614.41
2022-08-19T01:56:39.578Z,100621.78
2022-08-19T01:59:13.139Z,100617.28
2022-08-19T02:01:39.669Z,100609.84
2022-08-19T02:04:06.758Z,100599.47
2022-08-19T02:06:34.129Z,100599.34
2022-08-19T02:09:01.091Z,100588.47
2022-08-19T02:11:34.410Z,100591.13
2022-08-19T02:14:08.758Z,100600.22
2022-08-19T02:16:37.597Z,100584.69
2022-08-19T02:19:04.389Z,100571.16
2022-08-19T02:21:31.254Z,100557.00
2022-08-19T02:23:58.422Z,100575.31
2022-08-19T02:26:24.883Z,100558.28
2022-08-19T02:28:51.309Z,100542.59
2022-08-19T02:31:21.836Z,100541.59
2022-08-19T02:33:48.988Z,100522.88
2022-08-19T02:36:20.652Z,100484.75
2022-08-19T02:38:54.314Z,100461.91
2022-08-19T02:41:26.813Z,100458.59
2022-08-19T02:44:27.607Z,100448.75
2022-08-19T02:46:51.690Z,100439.19
2022-08-19T02:49:19.348Z,100448.22
2022-08-19T02:51:46.922Z,100449.50
2022-08-19T02:54:14.414Z,100441.22
2022-08-19T02:56:42.639Z,100439.47
2022-08-19T02:59:11.890Z,100437.28
2022-08-19T03:01:41.553Z,100450.16
2022-08-19T03:04:10.649Z,100457.50
2022-08-19T03:06:38.851Z,100459.13
2022-08-19T03:09:05.354Z,100462.91
2022-08-19T03:11:33.570Z,100464.81
2022-08-19T03:14:01.085Z,100469.63
2022-08-19T03:16:33.395Z,100474.38
2022-08-19T03:19:01.569Z,100469.69
2022-08-19T03:21:30.664Z,100458.22
2022-08-19T03:24:03.756Z,100457.69
2022-08-19T03:26:30.799Z,100460.06
2022-08-19T03:28:58.436Z,100469.97
2022-08-19T03:31:41.919Z,100463.72
2022-08-19T03:34:27.176Z,100465.94
2022-08-19T03:36:55.672Z,100454.44
2022-08-19T03:39:23.726Z,100455.19
2022-08-19T03:42:32.154Z,100451.72
2022-08-19T03:44:43.168Z,100447.38
2022-08-19T03:47:09.613Z,100452.25
2022-08-19T03:49:36.167Z,100452.88
2022-08-19T03:52:06.461Z,100445.63
2022-08-19T03:54:33.002Z,100440.22
2022-08-19T03:56:59.457Z,100450.97
2022-08-19T03:59:32.518Z,100449.28
2022-08-19T04:02:02.268Z,100451.97
2022-08-19T04:04:29.798Z,100466.50
2022-08-19T04:06:58.570Z,100463.63
2022-08-19T04:09:26.224Z,100462.44
2022-08-19T04:11:54.977Z,100463.72
2022-08-19T04:14:25.624Z,100467.28
2022-08-19T04:16:52.907Z,100471.97
2022-08-19T04:19:19.805Z,100476.28
2022-08-19T04:21:51.551Z,100468.50
2022-08-19T04:24:19.791Z,100486.34
2022-08-19T04:26:46.907Z,100483.19
2022-08-19T04:29:25.590Z,100481.00
2022-08-19T04:31:54.473Z,100484.09
2022-08-19T04:34:24.372Z,100473.84
2022-08-19T04:36:52.301Z,100476.94
2022-08-19T04:39:45.391Z,100484.91
2022-08-19T04:42:31.126Z,100484.06
2022-08-19T04:44:57.934Z,100491.06
2022-08-19T04:47:47.820Z,100490.78
2022-08-19T04:50:12.228Z,100502.09
2022-08-19T04:52:43.737Z,100500.88
2022-08-19T04:55:12.132Z,100488.06
2022-08-19T04:57:41.070Z,100495.31
2022-08-19T05:00:11.884Z,100482.91
2022-08-19T05:02:39.158Z,100474.34
2022-08-19T05:05:07.447Z,100473.88
2022-08-19T05:07:34.211Z,100475.53
2022-08-19T05:10:00.649Z,100479.47
2022-08-19T05:12:29.304Z,100476.41
2022-08-19T05:14:57.802Z,100470.53
2022-08-19T05:17:27.922Z,100468.50
2022-08-19T05:20:15.001Z,100467.75
2022-08-19T05:22:44.026Z,100464.00
2022-08-19T05:25:14.273Z,100467.97
2022-08-19T05:27:42.360Z,100463.72
2022-08-19T05:30:09.999Z,100466.75
2022-08-19T05:32:36.481Z,100464.53
2022-08-19T05:35:03.368Z,100463.09
2022-08-19T05:37:29.900Z,100469.50
2022-08-19T05:39:56.760Z,100470.59
2022-08-19T05:42:24.048Z,100479.34
2022-08-19T05:44:51.823Z,100484.13
2022-08-19T05:47:20.818Z,100499.03
2022-08-19T05:49:50.769Z,100505.75
2022-08-19T05:52:18.806Z,100500.75
2022-08-19T05:54:48.646Z,100493.94
2022-08-19T05:57:19.715Z,100498.91
2022-08-19T05:59:49.144Z,100503.31
2022-08-19T06:02:15.717Z,100503.78
2022-08-19T06:04:43.748Z,100505.50
2022-08-19T06:07:12.114Z,100499.97
2022-08-19T06:09:40.532Z,100492.03
2022-08-19T06:12:07.455Z,100483.56
2022-08-19T06:14:37.531Z,100476.59
2022-08-19T06:17:09.182Z,100471.38
2022-08-19T06:19:40.721Z,100465.72
2022-08-19T06:22:08.398Z,100474.34
2022-08-19T06:24:36.129Z,100491.66
2022-08-19T06:27:06.406Z,100486.72
2022-08-19T06:29:33.452Z,100484.09
2022-08-19T06:32:01.992Z,100492.41
2022-08-19T06:34:30.330Z,100505.94
2022-08-19T06:37:00.124Z,100512.16
2022-08-19T06:39:29.552Z,100517.13
2022-08-19T06:41:59.726Z,100530.31
2022-08-19T06:44:35.233Z,100543.91
2022-08-19T06:47:14.311Z,100548.03
2022-08-19T06:49:42.138Z,100547.09
2022-08-19T06:52:09.767Z,100536.56
2022-08-19T06:54:55.418Z,100531.38
2022-08-19T06:57:23.987Z,100534.69
2022-08-19T06:59:50.486Z,100535.34
2022-08-19T07:04:48.260Z,100526.94
2022-08-19T07:07:21.736Z,100519.19
2022-08-19T07:09:52.258Z,100517.78
2022-08-19T07:12:33.856Z,100515.00
2022-08-19T07:15:02.139Z,100519.19
2022-08-19T07:17:28.821Z,100513.69
2022-08-19T07:19:56.107Z,100517.50
2022-08-19T07:22:25.545Z,100516.59
2022-08-19T07:24:53.529Z,100519.78
2022-08-19T07:27:24.457Z,100532.78
2022-08-19T07:29:56.094Z,100542.56
2022-08-19T07:32:27.353Z,100553.44
2022-08-19T07:34:54.329Z,100558.88
2022-08-19T07:37:20.802Z,100559.44
2022-08-19T07:39:47.768Z,100562.25
2022-08-19T07:42:14.805Z,100561.66
2022-08-19T07:44:42.357Z,100560.59
2022-08-19T07:47:48.906Z,100564.94
2022-08-19T07:50:09.050Z,100565.78
2022-08-19T07:52:37.170Z,100566.97
2022-08-19T07:55:05.306Z,100566.81
2022-08-19T07:57:31.951Z,100564.56
2022-08-19T07:59:58.498Z,100567.19
2022-08-19T08:02:24.949Z,100568.50
2022-08-19T08:05:09.979Z,100572.44
2022-08-19T08:07:55.118Z,100572.53
2022-08-19T08:10:21.659Z,100574.72
2022-08-19T08:13:09.538Z,100588.84
2022-08-19T08:15:42.809Z,100590.50
2022-08-19T08:18:10.366Z,100586.28
2022-08-19T08:20:36.831Z,100593.81
2022-08-19T08:23:22.191Z,100602.81
2022-08-19T08:25:49.838Z,100596.22
2022-08-19T08:28:18.129Z,100608.69
2022-08-19T08:30:46.714Z,100591.84
2022-08-19T08:35:46.569Z,100593.06
2022-08-19T08:38:14.381Z,100602.94
2022-08-19T08:40:49.559Z,100596.81
2022-08-19T08:43:27.747Z,100599.78
2022-08-19T08:46:08.931Z,100600.59
2022-08-19T08:48:57.123Z,100592.44
2022-08-19T08:51:34.874Z,100607.69
2022-08-19T08:54:05.317Z,100611.47
2022-08-19T08:59:25.652Z,100604.59
2022-08-19T09:01:52.179Z,100613.56
2022-08-19T09:04:19.316Z,100621.56
2022-08-19T09:07:18.652Z,100623.81
2022-08-19T09:10:02.961Z,100623.44
2022-08-19T09:12:43.099Z,100626.81
2022-08-19T09:15:14.020Z,100635.75
2022-08-19T09:17:40.531Z,100626.50
2022-08-19T09:20:14.890Z,100630.25
2022-08-19T09:22:45.983Z,100619.94
2022-08-19T09:25:16.710Z,100621.41
2022-08-19T09:27:43.811Z,100614.56
2022-08-19T09:30:20.310Z,100621.31
2022-08-19T09:32:46.748Z,100619.22
2022-08-19T09:35:14.892Z,100626.19
2022-08-19T09:37:43.769Z,100611.09
2022-08-19T09:40:12.345Z,100615.31
2022-08-19T09:42:39.266Z,100627.09
2022-08-19T09:45:18.954Z,100623.94
2022-08-19T09:47:45.493Z,100614.97
2022-08-19T09:50:16.654Z,100612.19
2022-08-19T09:52:55.264Z,100614.28
2022-08-19T09:55:25.049Z,100615.16
2022-08-19T09:57:58.998Z,100606.84
2022-08-19T10:00:25.447Z,100610.53
2022-08-19T10:02:51.884Z,100616.78
2022-08-19T10:05:38.441Z,100620.06
2022-08-19T10:08:13.548Z,100618.28
2022-08-19T10:10:44.232Z,100619.66
2022-08-19T10:13:15.377Z,100617.69
2022-08-19T10:15:47.168Z,100621.16
2022-08-19T10:18:16.136Z,100624.75
2022-08-19T10:20:42.799Z,100614.69
2022-08-19T10:23:10.249Z,100616.78
2022-08-19T10:25:36.961Z,100619.94
2022-08-19T10:28:06.983Z,100615.72
2022-08-19T10:30:37.687Z,100608.75
2022-08-19T10:33:08.567Z,100608.16
2022-08-19T10:35:42.535Z,100602.66
2022-08-19T10:38:28.947Z,100602.25
2022-08-19T10:40:59.305Z,100599.53
2022-08-19T10:43:25.923Z,100600.25
2022-08-19T10:46:00.187Z,100595.44
2022-08-19T10:48:26.861Z,100594.47
2022-08-19T10:51:12.448Z,100600.03
2022-08-19T10:53:49.802Z,100595.00
2022-08-19T10:56:35.888Z,100600.09
2022-08-19T10:59:04.071Z,100592.88
2022-08-19T11:01:31.905Z,100590.44
2022-08-19T11:03:58.531Z,100592.94
2022-08-19T11:06:28.407Z,100595.94
2022-08-19T11:08:55.863Z,100610.91
2022-08-19T11:11:23.130Z,100610.66
2022-08-19T11:13:50.919Z,100606.00
2022-08-19T11:16:23.456Z,100610.75
2022-08-19T11:18:53.910Z,100618.56
2022-08-19T11:21:25.635Z,100626.00
2022-08-19T11:23:56.691Z,100615.50
2022-08-19T11:26:24.411Z,100609.28
2022-08-19T11:28:55.365Z,100615.19
2022-08-19T11:31:25.023Z,100620.41
2022-08-19T11:33:58.112Z,100616.13
2022-08-19T11:36:24.574Z,100614.78
2022-08-19T11:38:51.448Z,100612.00
2022-08-19T11:41:20.647Z,100618.47
2022-08-19T11:43:47.651Z,100624.34
2022-08-19T11:46:16.549Z,100624.75
2022-08-19T11:48:43.902Z,100635.44
2022-08-19T11:51:13.801Z,100630.97
2022-08-19T11:53:40.537Z,100631.22
2022-08-19T11:56:08.981Z,100631.34
2022-08-19T11:58:36.537Z,100631.56
2022-08-19T12:01:08.247Z,100640.31
2022-08-19T12:03:35.156Z,100647.06
2022-08-19T12:06:10.377Z,100636.44
2022-08-19T12:08:37.009Z,100637.69
2022-08-19T12:11:03.434Z,100644.59
2022-08-19T12:13:31.650Z,100639.31
2022-08-19T12:15:59.181Z,100644.75
2022-08-19T12:18:25.888Z,100636.63
2022-08-19T12:20:53.976Z,100648.41
2022-08-19T12:23:20.419Z,100640.59
2022-08-19T12:25:52.480Z,100644.00
2022-08-19T12:28:24.571Z,100642.56
2022-08-19T12:30:52.164Z,100640.38
2022-08-19T12:33:20.490Z,100648.69
2022-08-19T12:35:47.484Z,100652.22
2022-08-19T12:38:15.583Z,100653.44
2022-08-19T12:40:45.993Z,100651.66
2022-08-19T12:43:12.598Z,100659.47
2022-08-19T12:45:39.027Z,100667.31
2022-08-19T12:48:33.858Z,100663.13
2022-08-19T12:50:54.294Z,100665.59
2022-08-19T12:53:20.727Z,100667.41
2022-08-19T12:55:47.345Z,100662.09
2022-08-19T12:58:13.787Z,100649.13
2022-08-19T13:00:40.690Z,100655.72
2022-08-19T13:03:07.151Z,100653.91
2022-08-19T13:05:35.071Z,100664.06
2022-08-19T13:08:01.881Z,100651.75
2022-08-19T13:10:36.791Z,100654.66
2022-08-19T13:13:09.569Z,100665.97
2022-08-19T13:15:40.524Z,100665.63
2022-08-19T13:18:09.447Z,100669.09
2022-08-19T13:20:36.591Z,100675.72
2022-08-19T13:23:03.085Z,100676.66
2022-08-19T13:25:29.515Z,100673.06
2022-08-19T13:27:56.179Z,100678.22
2022-08-19T13:30:41.648Z,100672.88
2022-08-19T13:33:11.923Z,100678.31
2022-08-19T13:35:40.205Z,100677.78
2022-08-19T13:38:11.849Z,100671.19
2022-08-19T13:40:39.053Z,100675.38
2022-08-19T13:43:17.851Z,100678.47
2022-08-19T13:45:56.858Z,100669.81
2022-08-19T13:48:25.829Z,100674.09
2022-08-19T13:50:52.401Z,100668.84
2022-08-19T13:53:19.679Z,100662.78
2022-08-19T13:55:46.437Z,100666.66
2022-08-19T13:58:14.338Z,100658.28
2022-08-19T14:00:44.668Z,100655.19
2022-08-19T14:03:12.046Z,100648.13
2022-08-19T14:05:38.690Z,100653.28
2022-08-19T14:08:05.176Z,100654.50
2022-08-19T14:10:32.475Z,100651.41
2022-08-19T14:13:02.253Z,100648.13
2022-08-19T14:15:30.182Z,100649.94
2022-08-19T14:17:57.076Z,100656.66
2022-08-19T14:20:25.867Z,100657.91
2022-08-19T14:22:53.740Z,100664.94
2022-08-19T14:25:23.783Z,100664.31
2022-08-19T14:27:50.317Z,100662.94
2022-08-19T14:30:20.489Z,100667.38
2022-08-19T14:32:46.928Z,100658.34
2022-08-19T14:35:15.778Z,100659.66
2022-08-19T14:37:45.492Z,100661.59
2022-08-19T14:40:14.875Z,100663.19
2022-08-19T14:42:42.235Z,100659.94
2022-08-19T14:45:09.442Z,100659.19
2022-08-19T14:47:36.138Z,100659.78
2022-08-19T14:50:10.480Z,100660.41
2022-08-19T14:52:44.521Z,100662.97
2022-08-19T14:55:10.943Z,100667.28
2022-08-19T14:57:37.514Z,100670.03
2022-08-19T15:00:05.217Z,100665.16
2022-08-19T15:02:34.852Z,100682.50
2022-08-19T15:05:02.486Z,100686.34
2022-08-19T15:07:30.272Z,100684.47
2022-08-19T15:09:57.634Z,100684.78
2022-08-19T15:12:24.941Z,100687.03
2022-08-19T15:14:55.151Z,100705.19
2022-08-19T15:17:43.636Z,100699.78
2022-08-19T15:20:13.432Z,100692.41
2022-08-19T15:22:40.908Z,100700.81
2022-08-19T15:25:08.646Z,100703.91
2022-08-19T15:27:39.648Z,100720.06
2022-08-19T15:30:09.214Z,100721.16
2022-08-19T15:32:37.228Z,100729.66
2022-08-19T15:35:05.469Z,100736.47
2022-08-19T15:37:31.938Z,100743.50
2022-08-19T15:40:01.076Z,100725.84
2022-08-19T15:42:29.551Z,100730.84
2022-08-19T15:44:57.243Z,100727.03
2022-08-19T15:47:34.618Z,100726.03
2022-08-19T15:50:17.284Z,100729.81
2022-08-19T15:52:55.796Z,100731.91
2022-08-19T15:55:32.523Z,100733.91
2022-08-19T15:58:31.961Z,100726.03
2022-08-19T16:01:20.880Z,100715.06
2022-08-19T16:04:14.053Z,100723.78
2022-08-19T16:06:43.922Z,100719.09
2022-08-19T16:09:10.419Z,100720.78
2022-08-19T16:11:39.955Z,100721.97
2022-08-19T16:14:09.266Z,100723.88
2022-08-19T16:16:37.051Z,100726.19
2022-08-19T16:19:10.323Z,100721.91
2022-08-19T16:21:39.581Z,100720.03
2022-08-19T16:24:10.218Z,100709.91
2022-08-19T16:26:36.723Z,100711.78
2022-08-19T16:29:08.735Z,100714.63
2022-08-19T16:31:39.592Z,100718.72
2022-08-19T16:34:06.691Z,100722.91
2022-08-19T16:36:33.496Z,100721.03
2022-08-19T16:39:00.470Z,100732.56
2022-08-19T16:41:27.902Z,100732.34
2022-08-19T16:43:55.286Z,100736.44
2022-08-19T16:46:23.323Z,100731.72
2022-08-19T16:48:54.222Z,100734.94
2022-08-19T16:51:22.596Z,100733.00
2022-08-19T16:53:49.070Z,100745.03
2022-08-19T16:56:15.910Z,100748.94
2022-08-19T16:58:43.203Z,100738.94
2022-08-19T17:01:10.923Z,100742.25
2022-08-19T17:03:39.876Z,100742.81
2022-08-19T17:06:20.886Z,100747.50
2022-08-19T17:08:52.482Z,100744.47
2022-08-19T17:11:21.099Z,100742.72
2022-08-19T17:13:50.259Z,100734.72
2022-08-19T17:16:22.327Z,100733.97
2022-08-19T17:18:52.696Z,100724.00
2022-08-19T17:21:25.498Z,100731.59
2022-08-19T17:23:51.928Z,100725.88
2022-08-19T17:26:18.822Z,100723.38
2022-08-19T17:28:48.627Z,100730.00
2022-08-19T17:31:15.674Z,100724.75
2022-08-19T17:33:42.300Z,100723.19
2022-08-19T17:36:08.924Z,100729.44
2022-08-19T17:38:35.884Z,100731.84
2022-08-19T17:41:05.829Z,100716.47
2022-08-19T17:43:34.571Z,100724.84
2022-08-19T17:46:04.760Z,100728.63
2022-08-19T17:48:35.424Z,100732.84
2022-08-19T17:51:13.781Z,100731.47
2022-08-19T17:53:40.947Z,100742.88
2022-08-19T17:56:07.410Z,100744.72
2022-08-19T17:58:33.886Z,100750.13
2022-08-19T18:01:02.743Z,100756.13
2022-08-19T18:03:30.367Z,100758.50
2022-08-19T18:05:57.131Z,100763.34
2022-08-19T18:08:23.932Z,100762.81
2022-08-19T18:10:50.772Z,100768.50
2022-08-19T18:13:18.098Z,100758.75
2022-08-19T18:15:44.731Z,100766.75
2022-08-19T18:18:15.005Z,100776.59
2022-08-19T18:20:42.450Z,100784.03
2022-08-19T18:23:44.317Z,100775.75
2022-08-19T18:25:55.744Z,100774.34
2022-08-19T18:28:23.775Z,100772.31
2022-08-19T18:30:50.210Z,100782.09
2022-08-19T18:33:17.105Z,100776.13
2022-08-19T18:35:46.636Z,100772.16
2022-08-19T18:38:34.069Z,100772.06
2022-08-19T18:41:19.274Z,100783.38
2022-08-19T18:44:04.711Z,100793.69
2022-08-19T18:46:49.514Z,100797.47
2022-08-19T18:49:25.382Z,100797.84
2022-08-19T18:51:52.115Z,100807.94
2022-08-19T18:54:18.760Z,100807.22
2022-08-19T18:56:45.419Z,100807.47
2022-08-19T18:59:14.602Z,100814.63
2022-08-19T19:01:52.093Z,100808.94
2022-08-19T19:04:21.599Z,100813.19
2022-08-19T19:06:48.694Z,100812.94
2022-08-19T19:09:18.678Z,100818.88
2022-08-19T19:11:53.368Z,100823.84
2022-08-19T19:14:48.183Z,100820.44
2022-08-19T19:17:14.891Z,100831.34
2022-08-19T19:19:42.809Z,100831.94
2022-08-19T19:22:17.160Z,100832.66
2022-08-19T19:24:46.593Z,100845.63
2022-08-19T19:27:15.882Z,100845.41
2022-08-19T19:29:42.652Z,100843.16
2022-08-19T19:32:16.470Z,100839.31
2022-08-19T19:34:43.248Z,100827.78
2022-08-19T19:37:09.672Z,100840.88
2022-08-19T19:39:46.620Z,100839.91
2022-08-19T19:42:19.978Z,100833.47
2022-08-19T19:44:52.183Z,100844.16
2022-08-19T19:47:19.764Z,100842.59
2022-08-19T19:52:38.130Z,100847.38
2022-08-19T19:55:05.174Z,100851.13
2022-08-19T19:57:31.600Z,100846.00
2022-08-19T19:59:58.690Z,100848.72
2022-08-19T20:02:25.805Z,100840.44
2022-08-19T20:04:53.595Z,100847.16
2022-08-19T20:07:39.971Z,100848.63
2022-08-19T20:10:06.664Z,100856.66
2022-08-19T20:12:33.095Z,100860.47
2022-08-19T20:14:59.550Z,100855.50
2022-08-19T20:17:26.097Z,100856.81
2022-08-19T20:19:53.422Z,100853.38
2022-08-19T20:22:19.858Z,100846.84
2022-08-19T20:24:46.450Z,100844.94
2022-08-19T20:27:12.867Z,100843.66
2022-08-19T20:29:41.655Z,100835.44
2022-08-19T20:32:12.351Z,100833.66
2022-08-19T20:34:40.359Z,100826.28
2022-08-19T20:37:09.153Z,100829.16
2022-08-19T20:39:35.965Z,100828.41
2022-08-19T20:42:03.445Z,100831.75
2022-08-19T20:44:29.904Z,100826.78
2022-08-19T20:46:59.378Z,100829.25
2022-08-19T20:49:27.769Z,100835.56
2022-08-19T20:51:55.828Z,100836.88
2022-08-19T20:54:22.383Z,100838.41
2022-08-19T20:56:48.809Z,100845.41
2022-08-19T20:59:15.415Z,100843.50
2022-08-19T21:01:42.005Z,100831.75
2022-08-19T21:04:08.423Z,100831.63
2022-08-19T21:06:34.839Z,100814.50
2022-08-19T21:09:01.266Z,100816.19
2022-08-19T21:11:27.837Z,100804.22
2022-08-19T21:13:54.285Z,100808.63
2022-08-19T21:16:20.729Z,100808.47
2022-08-19T21:18:47.790Z,100806.00
2022-08-19T21:21:14.460Z,100805.16
2022-08-19T21:23:40.961Z,100815.03
2022-08-19T21:26:08.921Z,100822.03
2022-08-19T21:28:36.441Z,100825.72
2022-08-19T21:31:05.277Z,100845.78
2022-08-19T21:33:32.180Z,100845.31
2022-08-19T21:36:00.005Z,100856.59
2022-08-19T21:38:26.871Z,100856.31
2022-08-19T21:40:53.466Z,100854.94
2022-08-19T21:43:19.983Z,100860.97
2022-08-19T21:45:47.483Z,100862.50
2022-08-19T21:48:15.066Z,100866.44
2022-08-19T21:50:42.665Z,100868.81
2022-08-19T21:53:14.007Z,100866.31
2022-08-19T21:55:44.171Z,100866.56
2022-08-19T21:58:11.735Z,100859.31
2022-08-19T22:00:39.248Z,100862.53
2022-08-19T22:03:40.251Z,100852.81
2022-08-19T22:06:06.614Z,100852.94
2022-08-19T22:08:33.042Z,100858.03
2022-08-19T22:10:59.468Z,100865.41
2022-08-19T22:13:26.546Z,100863.94
2022-08-19T22:15:55.001Z,100854.44
2022-08-19T22:18:21.447Z,100849.94
2022-08-19T22:20:47.957Z,100848.88
2022-08-19T22:23:14.545Z,100845.91
2022-08-19T22:25:45.336Z,100847.00
2022-08-19T22:28:12.866Z,100843.91
2022-08-19T22:30:42.878Z,100848.06
2022-08-19T22:33:16.884Z,100855.88
2022-08-19T22:35:45.123Z,100854.59
2022-08-19T22:38:12.701Z,100857.44
2022-08-19T22:40:45.967Z,100854.00
2022-08-19T22:43:16.300Z,100850.44
2022-08-19T22:45:43.778Z,100852.47
2022-08-19T22:48:12.277Z,100840.97
2022-08-19T22:50:40.389Z,100843.00
2022-08-19T22:53:08.220Z,100833.13
2022-08-19T22:55:36.358Z,100833.88
2022-08-19T22:58:03.592Z,100827.81
2022-08-19T23:00:31.571Z,100822.34
2022-08-19T23:02:58.367Z,100823.53
2022-08-19T23:05:26.863Z,100830.06
2022-08-19T23:07:53.726Z,100836.56
2022-08-19T23:10:27.660Z,100842.28
2022-08-19T23:12:56.745Z,100835.88
2022-08-19T23:15:25.922Z,100838.00
2022-08-19T23:17:54.451Z,100819.75
2022-08-19T23:20:23.217Z,100807.38
2022-08-19T23:22:51.459Z,100804.28
2022-08-19T23:25:21.335Z,100803.72
2022-08-19T23:28:06.258Z,100829.00
2022-08-19T23:30:35.618Z,100832.81
2022-08-19T23:33:12.315Z,100844.53
2022-08-19T23:35:40.911Z,100834.59
2022-08-19T23:38:09.015Z,100828.31
2022-08-19T23:40:36.842Z,100828.03
2022-08-19T23:43:08.211Z,100826.50
2022-08-19T23:45:38.860Z,100833.38
2022-08-19T23:48:06.948Z,100830.19
2022-08-19T23:50:34.315Z,100822.47
2022-08-19T23:53:01.592Z,100811.91
2022-08-19T23:55:34.861Z,100817.75
2022-08-19T23:58:02.139Z,100820.84
